CRB5 weather

Rivière Bell Aerodrome
Rivière Bell, Quebec, Canada

Public forecast

Using degrees Celsius for public forecast. Weather courtesy of forecast.io.

METAR (pilot weather report)

Closest report is Natashquan Airport, 68.9 nm (127.7 km) NNE. Retrieved 2019/09/23 00:04 UTC (4 minutes ago):

CYNA 230004Z AUTO 27006KT 9SM SCT019 BKN026 BKN031 OVC040 13/10 A2954 RMK SLP005 DENSITY ALT 200FT

TAF (pilot weather forecast)

Closest forecast is Natashquan Airport, 68.9 nm (127.7 km) NNE. Retrieved 2019/09/22 20:00 UTC (4 hours ago):

TAF CYNA 221938Z 2220/2308 21010G20KT P6SM SCT050 FM222300 24012G22KT P6SM -SHRA BKN050 TEMPO 2223/2303 5SM -SHRA BR OVC020 FM230300 24015G25KT 4SM -DZ BR OVC010 FM230500 25015G25KT P6SM BKN040 RMK FCST BASED ON AUTO OBS. NXT FCST BY 230200Z